Time;durP1;ratioP1;P1;durP2;ratioP2;P2;SDS_P1;SDS_P2;PMS_P1;PMS_P2;Temp;Humidity;BMP_temperature;BMP_pressure;BME280_temperature;BME280_humidity;BME280_pressure;Samples;Min_cycle;Max_cycle;Signal;HPM_P1;HPM_P2
2023/09/09 00:01:17;;;;;;;18.05;10.07;;;;;;;19.53;100.00;101297.78;4952892;28;21375;-67
2023/09/09 00:03:42;;;;;;;11.63;8.65;;;;;;;19.50;100.00;101297.41;4962306;28;20261;-67
2023/09/09 00:06:11;;;;;;;12.90;8.88;;;;;;;19.48;100.00;101300.22;4964998;28;20039;-67
2023/09/09 00:08:38;;;;;;;12.48;8.52;;;;;;;19.47;100.00;101292.53;4969434;28;20085;-67
2023/09/09 00:11:04;;;;;;;11.43;8.40;;;;;;;19.45;100.00;101298.00;4953736;28;20042;-67
2023/09/09 00:13:29;;;;;;;11.65;8.82;;;;;;;19.45;100.00;101295.38;4952808;28;20046;-67
2023/09/09 00:15:55;;;;;;;13.18;7.88;;;;;;;19.44;100.00;101285.88;4949655;28;20050;-67
2023/09/09 00:18:21;;;;;;;15.75;9.00;;;;;;;19.42;100.00;101291.34;4952526;28;20110;-67
2023/09/09 00:20:47;;;;;;;10.77;8.07;;;;;;;19.43;100.00;101292.13;4951016;28;20027;-68
2023/09/09 00:23:13;;;;;;;9.93;7.88;;;;;;;19.42;100.00;101290.50;4966838;28;20031;-67
2023/09/09 00:25:40;;;;;;;12.15;9.07;;;;;;;19.40;100.00;101288.09;4955118;28;20435;-67
2023/09/09 00:28:08;;;;;;;14.50;9.23;;;;;;;19.39;100.00;101285.66;4969877;28;20045;-67
2023/09/09 00:30:34;;;;;;;13.32;9.10;;;;;;;19.39;100.00;101285.66;4950406;28;20469;-67
2023/09/09 00:32:59;;;;;;;17.50;10.27;;;;;;;19.38;100.00;101284.03;4955205;28;20184;-67
2023/09/09 00:35:26;;;;;;;13.32;9.43;;;;;;;19.36;100.00;101281.59;4936358;28;20057;-67
2023/09/09 00:37:51;;;;;;;15.68;9.18;;;;;;;19.34;100.00;101281.00;4951454;28;20045;-67
2023/09/09 00:40:17;;;;;;;13.43;9.52;;;;;;;19.34;100.00;101281.00;4959027;28;20031;-67
2023/09/09 00:42:42;;;;;;;11.45;8.88;;;;;;;19.31;100.00;101277.97;4955719;28;20069;-67
2023/09/09 00:45:08;;;;;;;12.27;8.90;;;;;;;19.26;100.00;101273.31;4952076;28;20489;-67
2023/09/09 00:47:34;;;;;;;10.70;8.73;;;;;;;19.23;100.00;101273.72;4950804;28;20108;-67
2023/09/09 00:50:00;;;;;;;12.65;9.43;;;;;;;19.21;100.00;101281.00;4952472;28;20130;-67
2023/09/09 00:52:26;;;;;;;12.13;8.93;;;;;;;19.18;100.00;101276.16;4954483;28;20103;-68
2023/09/09 00:54:52;;;;;;;16.63;10.10;;;;;;;19.15;100.00;101279.97;4957038;28;20030;-67
2023/09/09 00:57:18;;;;;;;13.20;9.27;;;;;;;19.13;100.00;101281.19;4954889;28;20039;-67
2023/09/09 00:59:44;;;;;;;14.30;9.35;;;;;;;19.11;100.00;101275.34;4956209;28;20086;-67
2023/09/09 01:02:10;;;;;;;14.02;9.77;;;;;;;19.11;100.00;101270.88;4953615;28;20676;-67
2023/09/09 01:04:36;;;;;;;13.48;10.50;;;;;;;19.11;100.00;101275.34;4948545;28;20129;-67
2023/09/09 01:07:02;;;;;;;11.98;9.20;;;;;;;19.10;100.00;101271.09;4958314;28;20038;-67
2023/09/09 01:09:30;;;;;;;15.63;9.65;;;;;;;19.07;100.00;101269.69;4966014;28;20065;-67
2023/09/09 01:11:55;;;;;;;13.80;9.68;;;;;;;19.03;100.00;101273.72;4951602;28;20054;-67
2023/09/09 01:14:21;;;;;;;16.27;9.00;;;;;;;19.00;100.00;101269.66;4970668;28;20034;-67
2023/09/09 01:16:50;;;;;;;19.13;10.20;;;;;;;19.00;100.00;101274.91;4954189;28;20049;-67
2023/09/09 01:19:19;;;;;;;16.77;9.93;;;;;;;19.00;100.00;101261.78;4952830;28;20042;-67
2023/09/09 01:21:46;;;;;;;11.82;8.93;;;;;;;19.00;100.00;101271.47;4962271;28;20050;-67
2023/09/09 01:24:16;;;;;;;17.15;9.48;;;;;;;18.98;100.00;101273.50;4951660;28;20111;-67
2023/09/09 01:26:43;;;;;;;17.13;9.93;;;;;;;18.97;100.00;101272.69;4964521;28;20061;-67
2023/09/09 01:29:08;;;;;;;13.50;9.52;;;;;;;18.94;100.00;101270.47;4954024;28;20057;-67
2023/09/09 01:31:35;;;;;;;17.77;9.95;;;;;;;18.94;100.00;101267.03;4949846;28;20035;-67
2023/09/09 01:34:01;;;;;;;14.52;9.73;;;;;;;18.93;100.00;101275.91;4954498;28;20045;-67
2023/09/09 01:36:26;;;;;;;12.40;8.52;;;;;;;18.90;100.00;101271.88;4953096;28;20778;-67
2023/09/09 01:38:52;;;;;;;12.60;8.98;;;;;;;18.89;100.00;101272.06;4953288;28;20060;-67
2023/09/09 01:41:17;;;;;;;20.05;9.25;;;;;;;18.86;100.00;101284.59;4957138;28;20055;-67
2023/09/09 01:43:43;;;;;;;12.55;8.38;;;;;;;18.84;100.00;101281.38;4953468;28;20101;-67
2023/09/09 01:46:08;;;;;;;12.63;9.02;;;;;;;18.81;100.00;101273.88;4965871;28;20581;-67
2023/09/09 01:48:34;;;;;;;14.18;8.90;;;;;;;18.78;100.00;101278.69;4953170;28;20043;-67
2023/09/09 01:51:00;;;;;;;13.75;9.18;;;;;;;18.73;100.00;101276.66;4951513;28;20453;-67
2023/09/09 01:53:26;;;;;;;11.38;8.90;;;;;;;18.70;100.00;101273.63;4969835;28;20031;-67
2023/09/09 01:55:51;;;;;;;12.98;8.40;;;;;;;18.65;100.00;101274.22;4968072;28;20031;-67
2023/09/09 01:58:17;;;;;;;10.95;8.52;;;;;;;18.62;100.00;101274.59;4971817;28;20019;-67
2023/09/09 02:00:43;;;;;;;14.05;8.85;;;;;;;18.58;100.00;101282.06;4949719;28;20031;-68
2023/09/09 02:03:08;;;;;;;19.67;9.40;;;;;;;18.53;100.00;101276.59;4953052;28;20030;-67
2023/09/09 02:05:34;;;;;;;12.60;8.02;;;;;;;18.49;100.00;101275.38;4954821;28;20092;-67
2023/09/09 02:08:00;;;;;;;10.25;7.85;;;;;;;18.45;100.00;101280.19;4951943;28;20038;-67
2023/09/09 02:10:26;;;;;;;12.38;8.20;;;;;;;18.42;100.00;101285.88;4953189;28;20489;-67
2023/09/09 02:12:51;;;;;;;11.30;8.38;;;;;;;18.42;100.00;101291.13;4971911;28;20042;-67
2023/09/09 02:15:17;;;;;;;13.68;9.25;;;;;;;18.41;100.00;101284.22;4951253;28;20389;-67
2023/09/09 02:17:45;;;;;;;12.32;8.82;;;;;;;18.43;100.00;101281.41;4948529;28;20049;-67
2023/09/09 02:20:11;;;;;;;12.18;8.95;;;;;;;18.42;100.00;101282.41;4952101;28;20059;-67
2023/09/09 02:22:36;;;;;;;9.55;7.72;;;;;;;18.39;100.00;101286.25;4954840;28;20058;-67
2023/09/09 02:25:03;;;;;;;14.65;9.45;;;;;;;18.36;100.00;101289.25;4956868;28;21922;-67
2023/09/09 02:27:29;;;;;;;13.85;8.18;;;;;;;18.32;100.00;101281.97;4949729;28;20031;-67
2023/09/09 02:29:54;;;;;;;11.07;7.68;;;;;;;18.31;100.00;101285.59;4951992;28;20110;-67
2023/09/09 02:32:20;;;;;;;14.65;8.90;;;;;;;18.28;100.00;101282.34;4950745;28;20039;-67
2023/09/09 02:34:45;;;;;;;12.70;9.00;;;;;;;18.26;100.00;101287.00;4950818;28;20022;-67
2023/09/09 02:37:19;;;;;;;11.43;8.90;;;;;;;18.25;100.00;101281.94;4963465;28;20043;-67
2023/09/09 02:39:48;;;;;;;15.70;8.35;;;;;;;18.25;100.00;101285.38;4955768;28;20050;-67
2023/09/09 02:42:17;;;;;;;10.95;7.82;;;;;;;18.23;100.00;101282.16;4954568;28;20112;-67
2023/09/09 02:44:43;;;;;;;13.75;8.93;;;;;;;18.21;100.00;101278.06;4948605;28;20070;-67
2023/09/09 02:47:09;;;;;;;16.17;7.95;;;;;;;18.19;100.00;101282.72;4952788;28;20088;-67
2023/09/09 02:49:35;;;;;;;12.70;8.27;;;;;;;18.15;100.00;101282.28;4966832;28;20041;-67
2023/09/09 02:52:01;;;;;;;12.40;8.02;;;;;;;18.13;100.00;101275.63;4946050;28;20065;-67
2023/09/09 02:54:27;;;;;;;12.23;7.57;;;;;;;18.12;100.00;101279.25;4955156;28;22866;-67
2023/09/09 02:56:52;;;;;;;12.57;8.05;;;;;;;18.12;100.00;101274.81;4953291;28;20049;-67
2023/09/09 02:59:18;;;;;;;10.85;8.57;;;;;;;18.12;100.00;101281.88;4965738;28;20026;-67
2023/09/09 03:01:44;;;;;;;10.90;7.72;;;;;;;18.08;100.00;101279.66;4971598;28;20047;-67
2023/09/09 03:04:13;;;;;;;14.18;8.50;;;;;;;18.05;100.00;101282.66;4963765;28;20052;-67
2023/09/09 03:06:39;;;;;;;19.20;9.10;;;;;;;17.99;100.00;101286.06;4952221;28;20046;-67
2023/09/09 03:09:05;;;;;;;10.73;8.25;;;;;;;17.93;100.00;101275.50;4948835;28;20434;-67
2023/09/09 03:11:32;;;;;;;13.82;7.88;;;;;;;17.85;100.00;101284.34;4952339;28;20038;-67
2023/09/09 03:13:57;;;;;;;13.85;8.65;;;;;;;17.80;100.00;101284.06;4952001;28;20050;-67
2023/09/09 03:16:23;;;;;;;11.43;7.90;;;;;;;17.76;100.00;101293.31;4952380;28;20082;-67
2023/09/09 03:18:49;;;;;;;14.57;8.25;;;;;;;17.74;100.00;101288.28;4967814;28;20077;-67
2023/09/09 03:21:14;;;;;;;10.43;7.82;;;;;;;17.75;100.00;101291.72;4952704;28;20046;-67
2023/09/09 03:23:39;;;;;;;11.18;7.65;;;;;;;17.74;100.00;101284.84;4952024;28;20027;-67
2023/09/09 03:26:05;;;;;;;11.68;8.13;;;;;;;17.73;100.00;101285.88;4952355;28;20058;-67
2023/09/09 03:28:31;;;;;;;12.10;8.05;;;;;;;17.73;100.00;101288.47;4952296;28;20050;-67
2023/09/09 03:30:59;;;;;;;11.18;7.72;;;;;;;17.72;100.00;101287.66;4951390;28;20130;-67
2023/09/09 03:33:28;;;;;;;15.77;8.40;;;;;;;17.67;100.00;101288.25;4953037;28;20385;-67
2023/09/09 03:35:53;;;;;;;13.27;8.10;;;;;;;17.62;100.00;101287.19;4948065;28;20035;-67
2023/09/09 03:38:19;;;;;;;11.40;7.97;;;;;;;17.55;100.00;101281.09;4965418;28;20030;-67
2023/09/09 03:40:45;;;;;;;12.93;7.65;;;;;;;17.49;100.00;101290.50;4947247;28;20758;-68
2023/09/09 03:43:14;;;;;;;9.98;7.53;;;;;;;17.44;100.00;101285.84;4931352;28;20038;-67
2023/09/09 03:45:40;;;;;;;15.70;9.38;;;;;;;17.44;100.00;101293.72;4967744;28;20082;-67
2023/09/09 03:48:06;;;;;;;11.77;7.55;;;;;;;17.43;100.00;101286.84;4951223;28;20042;-67
2023/09/09 03:50:32;;;;;;;11.73;7.82;;;;;;;17.41;100.00;101294.09;4951486;28;20026;-67
2023/09/09 03:52:58;;;;;;;13.40;8.02;;;;;;;17.38;100.00;101288.41;4946901;28;20036;-67
2023/09/09 03:55:25;;;;;;;13.68;8.05;;;;;;;17.34;100.00;101290.59;4961741;28;20061;-67
2023/09/09 03:57:52;;;;;;;12.90;8.52;;;;;;;17.28;100.00;101289.53;4951021;28;20247;-67
2023/09/09 04:00:18;;;;;;;12.75;8.30;;;;;;;17.25;100.00;101300.41;4952367;28;20108;-67
2023/09/09 04:02:44;;;;;;;14.15;8.98;;;;;;;17.23;100.00;101291.09;4949480;28;20413;-67
2023/09/09 04:05:11;;;;;;;12.57;8.93;;;;;;;17.20;100.00;101292.28;4955353;28;20031;-67
2023/09/09 04:07:37;;;;;;;12.85;8.70;;;;;;;17.20;100.00;101288.88;4950394;28;20038;-67
2023/09/09 04:10:04;;;;;;;14.07;8.32;;;;;;;17.17;100.00;101284.81;4950984;28;20039;-67
2023/09/09 04:12:31;;;;;;;12.80;8.98;;;;;;;17.16;100.00;101291.06;4951208;28;20486;-67
2023/09/09 04:14:56;;;;;;;10.63;8.93;;;;;;;17.15;100.00;101294.66;4935119;28;20464;-67
2023/09/09 04:17:22;;;;;;;13.52;8.75;;;;;;;17.14;100.00;101298.28;4950363;28;20133;-67
2023/09/09 04:19:48;;;;;;;13.38;8.82;;;;;;;17.12;100.00;101292.41;4966123;28;20035;-67
2023/09/09 04:22:13;;;;;;;13.23;9.45;;;;;;;17.08;100.00;101291.16;4951225;28;20071;-67
2023/09/09 04:24:39;;;;;;;16.85;9.43;;;;;;;17.06;100.00;101295.78;4950902;28;20039;-67
2023/09/09 04:27:05;;;;;;;14.23;9.45;;;;;;;17.05;100.00;101302.03;4950327;28;20413;-67
2023/09/09 04:29:31;;;;;;;14.90;9.27;;;;;;;17.04;100.00;101303.00;4948894;28;20046;-67
2023/09/09 04:31:58;;;;;;;16.42;10.18;;;;;;;17.05;100.00;101297.59;4956625;28;20038;-67
2023/09/09 04:34:24;;;;;;;12.73;9.60;;;;;;;17.07;100.00;101300.84;4960890;28;20096;-67
2023/09/09 04:36:50;;;;;;;15.68;10.95;;;;;;;17.06;100.00;101299.19;4951504;28;20027;-66
2023/09/09 04:39:16;;;;;;;16.13;10.00;;;;;;;17.02;100.00;101305.00;4949384;28;20066;-67
2023/09/09 04:41:43;;;;;;;14.35;9.55;;;;;;;16.97;100.00;101310.81;4949388;28;20486;-67
2023/09/09 04:44:10;;;;;;;15.07;9.82;;;;;;;16.93;100.00;101307.75;4948334;28;20049;-67
2023/09/09 04:46:36;;;;;;;16.80;9.90;;;;;;;16.91;100.00;101306.31;4949317;28;20054;-67
2023/09/09 04:49:03;;;;;;;14.13;9.50;;;;;;;16.87;100.00;101302.44;4952121;28;20485;-67
2023/09/09 04:51:32;;;;;;;17.08;10.50;;;;;;;16.85;100.00;101305.22;4947561;28;20030;-67
2023/09/09 04:53:59;;;;;;;12.65;10.10;;;;;;;16.85;100.00;101307.06;4968397;28;20545;-67
2023/09/09 04:56:25;;;;;;;17.85;10.70;;;;;;;16.86;100.00;101309.50;4948850;28;20088;-67
2023/09/09 04:58:51;;;;;;;13.55;10.65;;;;;;;16.85;100.00;101310.47;4942404;28;20023;-67
2023/09/09 05:01:16;;;;;;;16.92;11.70;;;;;;;16.83;100.00;101309.03;4950388;28;20039;-67
2023/09/09 05:03:42;;;;;;;15.18;10.18;;;;;;;16.82;100.00;101310.00;4951837;28;20023;-67
2023/09/09 05:06:08;;;;;;;15.85;10.63;;;;;;;16.78;100.00;101306.94;4949112;28;20098;-67
2023/09/09 05:08:33;;;;;;;14.93;9.93;;;;;;;16.78;100.00;101306.94;4952268;28;20042;-67
2023/09/09 05:11:00;;;;;;;15.95;11.18;;;;;;;16.78;100.00;101312.16;4951645;28;20078;-67
2023/09/09 05:13:27;;;;;;;18.02;11.20;;;;;;;16.79;100.00;101315.63;4951273;28;20480;-67
2023/09/09 05:15:53;;;;;;;12.95;9.88;;;;;;;16.79;100.00;101318.25;4949401;28;20058;-66
2023/09/09 05:18:19;;;;;;;16.92;10.90;;;;;;;16.78;100.00;101317.41;4955369;28;20042;-67
2023/09/09 05:20:45;;;;;;;17.08;10.95;;;;;;;16.79;100.00;101318.25;4949627;28;20030;-67
2023/09/09 05:23:10;;;;;;;12.57;9.77;;;;;;;16.82;100.00;101315.22;4950568;28;20042;-67
2023/09/09 05:25:36;;;;;;;16.13;10.07;;;;;;;16.83;100.00;101316.91;4950753;28;20034;-68
2023/09/09 05:28:01;;;;;;;15.18;10.10;;;;;;;16.84;100.00;101321.13;4953822;28;20031;-67
2023/09/09 05:30:27;;;;;;;14.73;10.18;;;;;;;16.86;100.00;101322.59;4948448;28;20114;-67
2023/09/09 05:32:52;;;;;;;16.90;10.65;;;;;;;16.87;100.00;101326.81;4956209;28;20046;-67
2023/09/09 05:35:18;;;;;;;17.65;10.55;;;;;;;16.89;100.00;101332.69;4956222;28;20065;-67
2023/09/09 05:37:46;;;;;;;13.68;9.82;;;;;;;16.89;100.00;101329.25;4954492;28;20073;-67
2023/09/09 05:40:12;;;;;;;15.93;9.65;;;;;;;16.90;100.00;101325.66;4954291;28;20389;-67
2023/09/09 05:42:38;;;;;;;16.88;10.95;;;;;;;16.91;100.00;101338.56;4953966;28;20097;-67
2023/09/09 05:45:08;;;;;;;16.13;10.20;;;;;;;16.92;100.00;101334.94;4967285;28;20408;-67
2023/09/09 05:47:35;;;;;;;15.85;10.75;;;;;;;16.93;100.00;101335.75;4933722;28;20098;-67
2023/09/09 05:50:01;;;;;;;16.85;9.20;;;;;;;16.95;100.00;101333.75;4968769;28;20124;-67
2023/09/09 05:52:29;;;;;;;14.93;10.50;;;;;;;17.00;100.00;101349.72;4951054;28;20597;-67
2023/09/09 05:54:55;;;;;;;17.23;11.63;;;;;;;17.03;100.00;101343.31;4967347;28;20042;-67
2023/09/09 05:57:20;;;;;;;19.02;12.45;;;;;;;17.08;100.00;101340.94;4948814;28;20119;-67
2023/09/09 05:59:46;;;;;;;15.98;11.52;;;;;;;17.13;100.00;101343.81;4966636;28;20023;-67
2023/09/09 06:02:12;;;;;;;20.45;11.82;;;;;;;17.20;100.00;101349.16;4949926;28;20181;-67
2023/09/09 06:04:38;;;;;;;16.85;12.43;;;;;;;17.31;100.00;101348.66;4951898;28;20035;-67
2023/09/09 06:07:04;;;;;;;20.00;11.23;;;;;;;17.35;100.00;101349.06;4950423;28;20035;-66
2023/09/09 06:09:30;;;;;;;15.45;10.95;;;;;;;17.39;100.00;101358.19;4948767;28;20192;-67
2023/09/09 06:11:56;;;;;;;21.13;11.27;;;;;;;17.43;100.00;101355.00;4954948;28;20042;-67
2023/09/09 06:14:21;;;;;;;20.63;11.48;;;;;;;17.48;100.00;101355.25;4950206;28;20035;-67
2023/09/09 06:16:47;;;;;;;18.45;11.55;;;;;;;17.57;100.00;101353.28;4953367;28;20030;-67
2023/09/09 06:19:12;;;;;;;18.05;10.93;;;;;;;17.62;100.00;101350.91;4950097;28;20070;-67
2023/09/09 06:21:38;;;;;;;21.13;11.40;;;;;;;17.69;100.00;101346.53;4950820;28;20046;-67
2023/09/09 06:24:04;;;;;;;17.00;11.27;;;;;;;17.77;100.00;101355.28;4955117;28;20554;-67
2023/09/09 06:26:33;;;;;;;17.35;11.40;;;;;;;17.83;100.00;101350.06;4954130;28;20042;-67
2023/09/09 06:28:58;;;;;;;20.33;12.13;;;;;;;17.96;100.00;101356.47;4951707;28;20070;-67
2023/09/09 06:31:24;;;;;;;16.75;10.75;;;;;;;18.03;100.00;101360.75;4948562;28;20038;-67
2023/09/09 06:33:50;;;;;;;20.13;11.90;;;;;;;18.15;100.00;101368.91;4951349;28;20058;-67
2023/09/09 06:36:20;;;;;;;19.17;12.15;;;;;;;18.28;100.00;101366.34;4951496;28;20038;-67
2023/09/09 06:38:45;;;;;;;43.90;25.90;;;;;;;18.45;100.00;101363.41;4950629;28;20489;-67
2023/09/09 06:41:13;;;;;;;57.10;30.40;;;;;;;18.64;100.00;101372.38;4964747;28;20138;-67
2023/09/09 06:43:38;;;;;;;19.17;12.95;;;;;;;18.87;100.00;101366.84;4952662;28;20046;-67
2023/09/09 06:46:04;;;;;;;20.92;12.88;;;;;;;19.11;100.00;101373.38;4965935;28;20089;-67
2023/09/09 06:48:30;;;;;;;19.77;12.38;;;;;;;19.45;100.00;101361.09;4951864;28;20062;-67
2023/09/09 06:50:55;;;;;;;20.15;13.13;;;;;;;19.86;100.00;101368.03;4965113;28;20085;-67
2023/09/09 06:53:22;;;;;;;21.88;12.55;;;;;;;20.42;99.08;101367.50;4965753;28;20439;-68
2023/09/09 06:55:47;;;;;;;22.33;12.32;;;;;;;20.95;94.80;101368.34;4968016;28;20054;-67
2023/09/09 06:58:13;;;;;;;24.98;11.35;;;;;;;21.61;91.51;101371.59;4952263;28;20042;-67
2023/09/09 07:00:40;;;;;;;18.85;11.80;;;;;;;22.14;86.89;101369.25;4949309;28;20464;-68
2023/09/09 07:03:07;;;;;;;22.98;13.18;;;;;;;22.53;85.15;101369.06;4961878;28;20109;-68
2023/09/09 07:05:32;;;;;;;19.73;11.68;;;;;;;22.87;82.97;101366.81;4949130;28;20055;-67
2023/09/09 07:07:58;;;;;;;27.17;11.77;;;;;;;23.21;81.17;101377.75;4961321;28;20031;-68
2023/09/09 07:10:24;;;;;;;18.35;11.20;;;;;;;23.54;79.95;101365.84;4969475;28;20043;-68
2023/09/09 07:12:49;;;;;;;20.65;11.27;;;;;;;23.71;78.00;101370.22;4950538;28;20049;-67
2023/09/09 07:15:15;;;;;;;19.83;10.35;;;;;;;24.10;77.39;101372.41;4969376;28;20034;-67
2023/09/09 07:17:46;;;;;;;17.52;11.15;;;;;;;24.39;74.60;101375.13;4967771;28;20049;-67
2023/09/09 07:20:12;;;;;;;16.02;10.25;;;;;;;24.73;73.63;101381.38;4963127;28;20042;-67
2023/09/09 07:22:38;;;;;;;18.30;11.02;;;;;;;24.93;73.31;101377.50;4967924;28;20129;-68
2023/09/09 07:25:05;;;;;;;16.95;11.60;;;;;;;25.00;71.36;101371.00;4964800;28;20042;-67
2023/09/09 07:27:31;;;;;;;23.70;12.15;;;;;;;25.08;71.12;101372.47;4966965;28;20978;-67
2023/09/09 07:29:56;;;;;;;14.90;10.43;;;;;;;25.36;70.85;101378.81;4974915;28;20034;-67
2023/09/09 07:32:22;;;;;;;16.02;9.20;;;;;;;25.71;70.44;101375.91;4951072;28;20560;-67
2023/09/09 07:34:48;;;;;;;21.60;11.38;;;;;;;25.77;69.62;101372.25;4954972;28;20053;-67
2023/09/09 07:37:13;;;;;;;21.45;11.65;;;;;;;25.98;68.21;101373.38;4966890;28;20515;-67
2023/09/09 07:39:49;;;;;;;22.30;12.50;;;;;;;26.13;68.47;101367.47;4966571;28;20031;-67
2023/09/09 07:42:15;;;;;;;16.42;11.07;;;;;;;26.43;66.99;101371.53;4950274;28;20043;-67
2023/09/09 07:44:42;;;;;;;21.30;11.00;;;;;;;26.65;65.40;101368.88;4953259;28;20037;-67
2023/09/09 07:47:08;;;;;;;19.30;11.48;;;;;;;26.84;64.65;101360.53;4965777;28;20073;-67
2023/09/09 07:49:33;;;;;;;23.38;10.73;;;;;;;26.95;64.00;101365.69;4966371;28;20093;-67
2023/09/09 07:51:59;;;;;;;24.00;12.18;;;;;;;27.23;63.82;101363.81;4964700;28;20035;-67
2023/09/09 07:54:25;;;;;;;18.83;11.23;;;;;;;27.28;62.90;101371.09;4963125;28;20042;-67
2023/09/09 07:56:50;;;;;;;21.90;12.15;;;;;;;27.11;63.00;101365.88;4968132;28;20038;-67
2023/09/09 07:59:16;;;;;;;18.38;9.27;;;;;;;27.50;62.94;101366.47;4967350;28;20038;-67
2023/09/09 08:01:42;;;;;;;21.02;10.85;;;;;;;27.64;61.82;101364.16;4966555;28;20121;-67
2023/09/09 08:04:07;;;;;;;19.73;11.23;;;;;;;27.60;61.56;101367.59;4968101;28;20065;-66
2023/09/09 08:06:33;;;;;;;16.92;11.13;;;;;;;27.90;60.93;101361.66;4964484;28;20502;-67
2023/09/09 08:08:58;;;;;;;19.17;10.13;;;;;;;28.15;60.58;101363.63;4960412;28;20134;-67
2023/09/09 08:11:24;;;;;;;17.88;9.10;;;;;;;28.45;60.05;101367.47;4965223;28;20054;-67
2023/09/09 08:13:49;;;;;;;20.02;10.88;;;;;;;28.42;58.10;101363.47;4974233;28;20050;-67
2023/09/09 08:16:15;;;;;;;21.40;10.60;;;;;;;28.37;59.00;101368.78;4961737;28;20049;-67
2023/09/09 08:18:40;;;;;;;21.73;10.32;;;;;;;28.61;59.61;101365.66;4957244;28;20383;-67
2023/09/09 08:21:06;;;;;;;23.42;11.63;;;;;;;28.48;58.13;101365.09;4969424;28;20066;-67
2023/09/09 08:23:32;;;;;;;24.13;11.07;;;;;;;28.66;58.66;101366.47;4965878;28;20026;-67
2023/09/09 08:25:58;;;;;;;23.92;11.65;;;;;;;28.69;59.20;101367.84;4953133;28;20069;-67
2023/09/09 08:28:23;;;;;;;20.65;12.40;;;;;;;28.65;58.25;101372.06;4967794;28;20039;-67
2023/09/09 08:30:49;;;;;;;19.20;10.68;;;;;;;28.88;58.45;101370.81;4964824;28;20038;-67
2023/09/09 08:33:14;;;;;;;18.33;11.00;;;;;;;29.06;57.80;101366.78;4966072;28;20042;-67
2023/09/09 08:35:39;;;;;;;24.77;10.32;;;;;;;29.23;57.25;101366.56;4961966;28;20042;-67
2023/09/09 08:38:05;;;;;;;19.65;12.00;;;;;;;29.22;56.85;101368.44;4963928;28;20409;-68
2023/09/09 08:40:39;;;;;;;16.70;9.63;;;;;;;29.38;57.77;101368.41;4967251;28;20038;-67
2023/09/09 08:43:18;;;;;;;22.95;11.00;;;;;;;29.47;58.13;101372.16;4965930;28;20053;-67
2023/09/09 08:45:55;;;;;;;21.23;10.00;;;;;;;29.89;57.33;101379.84;4969430;28;20101;-68
2023/09/09 08:48:23;;;;;;;26.63;10.82;;;;;;;30.09;56.38;101367.47;4966635;28;20034;-67
2023/09/09 08:50:50;;;;;;;28.92;12.07;;;;;;;29.98;55.04;101376.59;4965724;28;20023;-68
2023/09/09 08:53:17;;;;;;;21.23;11.13;;;;;;;29.85;55.88;101378.75;4956754;28;20129;-67
2023/09/09 08:55:43;;;;;;;22.00;10.48;;;;;;;30.20;54.69;101377.03;4963380;28;20035;-68
2023/09/09 08:58:09;;;;;;;18.40;9.82;;;;;;;30.41;54.47;101377.75;4955944;28;20184;-67
2023/09/09 09:00:36;;;;;;;27.63;12.10;;;;;;;30.41;55.01;101372.41;4967494;28;20038;-67
2023/09/09 09:03:02;;;;;;;18.38;10.18;;;;;;;30.49;54.97;101380.94;4964588;28;20031;-67
2023/09/09 09:05:32;;;;;;;21.73;11.48;;;;;;;30.49;54.74;101378.28;4954764;28;20121;-67
2023/09/09 09:07:58;;;;;;;28.02;10.57;;;;;;;30.58;54.49;101376.63;4954754;28;20043;-67
2023/09/09 09:10:24;;;;;;;21.92;11.20;;;;;;;30.45;55.52;101376.13;4972620;28;20129;-67
2023/09/09 09:12:49;;;;;;;22.90;10.75;;;;;;;30.30;55.09;101380.75;4954222;28;20049;-67
2023/09/09 09:15:16;;;;;;;20.55;9.20;;;;;;;30.49;55.72;101373.72;4975508;28;20485;-67
2023/09/09 09:17:42;;;;;;;14.50;9.27;;;;;;;30.57;55.65;101375.00;4968484;28;20039;-67
2023/09/09 09:20:24;;;;;;;18.20;9.05;;;;;;;30.50;55.10;101379.84;4976658;28;20046;-67
2023/09/09 09:22:50;;;;;;;;;;;;;;;30.20;57.61;101386.94;4971514;28;20045;-67
2023/09/09 09:25:26;;;;;;;18.70;9.30;;;;;;;30.32;57.23;101379.41;4975270;28;19914;-67
2023/09/09 09:27:54;;;;;;;23.58;9.43;;;;;;;30.35;56.38;101381.56;4967082;28;20053;-67
2023/09/09 09:30:25;;;;;;;23.27;9.18;;;;;;;30.49;57.11;101375.59;4971858;28;20126;-68
2023/09/09 09:32:52;;;;;;;16.77;9.18;;;;;;;30.44;56.60;101379.09;4969313;28;20129;-67
2023/09/09 09:35:28;;;;;;;21.48;11.80;;;;;;;30.22;57.42;101371.44;4954230;28;20038;-67
2023/09/09 09:38:14;;;;;;;16.15;10.00;;;;;;;29.97;57.79;101373.13;4968729;28;20037;-67
2023/09/09 09:40:40;;;;;;;20.88;10.60;;;;;;;29.76;58.63;101379.59;4967242;28;20045;-68
2023/09/09 09:43:23;;;;;;;21.52;10.40;;;;;;;29.64;60.05;101377.19;4972847;28;20460;-67
2023/09/09 09:45:48;;;;;;;23.42;10.23;;;;;;;29.82;59.16;101373.16;4968437;28;20039;-67
2023/09/09 09:48:26;;;;;;;24.38;10.02;;;;;;;29.86;59.37;101369.69;4967242;28;20058;-68
2023/09/09 09:50:53;;;;;;;30.65;10.35;;;;;;;29.94;58.67;101370.19;4963283;28;20031;-67
2023/09/09 09:53:18;;;;;;;19.83;8.48;;;;;;;30.13;58.20;101373.06;4966764;28;20041;-67
2023/09/09 09:55:44;;;;;;;17.45;8.93;;;;;;;30.38;58.03;101374.84;4955780;28;20034;-68
2023/09/09 09:58:13;;;;;;;20.73;8.73;;;;;;;30.26;57.95;101375.94;4971703;28;20027;-67
2023/09/09 10:00:39;;;;;;;17.98;8.13;;;;;;;30.33;58.23;101374.84;4942378;28;20139;-67
2023/09/09 10:03:06;;;;;;;17.58;7.32;;;;;;;30.28;58.04;101367.66;4963392;28;20577;-67
2023/09/09 10:05:33;;;;;;;15.60;8.35;;;;;;;30.32;57.48;101367.91;4954391;28;20038;-67
2023/09/09 10:08:17;;;;;;;19.75;8.07;;;;;;;30.16;59.77;101375.19;4963560;28;20057;-67
2023/09/09 10:10:52;;;;;;;20.20;8.68;;;;;;;30.00;59.43;101369.91;4964801;28;20030;-67
2023/09/09 10:13:18;;;;;;;21.33;8.95;;;;;;;29.98;59.28;101361.34;4970510;28;20039;-67
2023/09/09 10:15:44;;;;;;;18.80;8.23;;;;;;;29.91;59.66;101360.84;4963368;28;20050;-68
2023/09/09 10:18:12;;;;;;;24.67;7.68;;;;;;;30.19;58.44;101364.72;4972751;28;20030;-67
2023/09/09 10:20:39;;;;;;;17.77;7.97;;;;;;;30.03;58.25;101366.69;4969711;28;20039;-67
2023/09/09 10:23:04;;;;;;;20.98;7.78;;;;;;;30.14;57.98;101367.44;4952555;28;21216;-67
2023/09/09 10:25:30;;;;;;;18.80;7.07;;;;;;;30.50;58.08;101363.81;4966494;28;20062;-67
2023/09/09 10:27:56;;;;;;;13.65;7.90;;;;;;;30.43;59.03;101364.13;4953721;28;20043;-67
2023/09/09 10:30:23;;;;;;;20.75;7.75;;;;;;;30.12;59.06;101358.09;4965086;28;20190;-67
2023/09/09 10:32:49;;;;;;;18.02;7.22;;;;;;;30.24;59.36;101369.28;4968679;28;20039;-67
2023/09/09 10:35:17;;;;;;;16.63;7.30;;;;;;;30.18;60.03;101362.34;4969848;28;20034;-67
2023/09/09 10:37:43;;;;;;;17.35;8.98;;;;;;;30.13;59.90;101359.69;4964455;28;20140;-67
2023/09/09 10:40:10;;;;;;;15.68;8.32;;;;;;;30.14;59.55;101358.59;4952152;28;20089;-67
2023/09/09 10:42:41;;;;;;;13.95;7.70;;;;;;;30.23;59.77;101359.63;4968611;28;20047;-67
2023/09/09 10:45:30;;;;;;;15.23;7.10;;;;;;;30.44;59.38;101358.50;4971013;28;20125;-68
2023/09/09 10:48:04;;;;;;;19.85;7.40;;;;;;;30.47;60.29;101357.13;4964064;28;20088;-67
2023/09/09 10:50:53;;;;;;;16.13;7.43;;;;;;;30.23;58.93;101357.78;4947441;28;20039;-67
2023/09/09 10:53:28;;;;;;;23.13;8.57;;;;;;;30.12;59.32;101360.75;4965046;28;20050;-67
2023/09/09 10:55:56;;;;;;;22.10;8.63;;;;;;;30.28;60.12;101362.28;4959100;28;20039;-68
2023/09/09 10:58:33;;;;;;;23.58;8.10;;;;;;;30.51;58.89;101352.84;4950203;28;20090;-67
2023/09/09 11:01:02;;;;;;;14.25;8.02;;;;;;;30.59;60.25;101362.16;4948964;28;20043;-67
2023/09/09 11:03:38;;;;;;;16.40;8.23;;;;;;;30.63;60.15;101368.56;4967474;28;20038;-67
2023/09/09 11:06:11;;;;;;;24.63;9.13;;;;;;;30.38;58.65;101361.47;4944576;28;20042;-67
2023/09/09 11:08:46;;;;;;;15.13;8.07;;;;;;;30.50;61.06;101361.13;4966835;28;20034;-66